createdAt,value
2022-12-05T00:00:00.399Z,39.1
2022-12-05T00:01:13.419Z,39.1
2022-12-05T00:02:00.329Z,39.1
2022-12-05T00:03:04.369Z,39.1
2022-12-05T00:04:06.015Z,39.9
2022-12-05T00:05:00.210Z,39.9
2022-12-05T00:06:00.208Z,39.9
2022-12-05T00:07:00.238Z,39.9
2022-12-05T00:08:00.375Z,39.9
2022-12-05T00:09:01.223Z,39.9
2022-12-05T00:10:00.473Z,39.9
2022-12-05T00:11:00.263Z,39.9
2022-12-05T00:12:00.223Z,39.9
2022-12-05T00:13:00.241Z,39.9
2022-12-05T00:14:01.056Z,39.8
2022-12-05T00:15:00.275Z,39.8
2022-12-05T00:16:00.196Z,39.8
2022-12-05T00:17:00.315Z,39.8
2022-12-05T00:18:00.205Z,39.8
2022-12-05T00:19:01.618Z,41.3
2022-12-05T00:20:00.514Z,41.3
2022-12-05T00:21:00.367Z,41.3
2022-12-05T00:22:00.194Z,41.3
2022-12-05T00:23:00.261Z,41.3
2022-12-05T00:24:02.790Z,35.8
2022-12-05T00:25:00.287Z,35.8
2022-12-05T00:26:02.398Z,35.8
2022-12-05T00:27:00.232Z,35.8
2022-12-05T00:28:00.208Z,35.8
2022-12-05T00:29:00.599Z,40.9
2022-12-05T00:30:00.752Z,40.9
2022-12-05T00:31:06.005Z,40.9
2022-12-05T00:32:00.322Z,40.9
2022-12-05T00:33:00.259Z,40.9
2022-12-05T00:34:01.368Z,39.8
2022-12-05T00:35:00.241Z,39.8
2022-12-05T00:36:03.657Z,39.8
2022-12-05T00:37:00.181Z,39.8
2022-12-05T00:38:00.215Z,39.8
2022-12-05T00:39:05.268Z,40.0
2022-12-05T00:40:00.403Z,40.0
2022-12-05T00:41:02.531Z,40.0
2022-12-05T00:42:00.229Z,40.0
2022-12-05T00:43:00.188Z,40.0
2022-12-05T00:44:01.789Z,37.1
2022-12-05T00:45:00.240Z,37.1
2022-12-05T00:46:01.983Z,37.1
2022-12-05T00:47:00.254Z,37.1
2022-12-05T00:48:00.217Z,37.1
2022-12-05T00:49:02.379Z,36.9
2022-12-05T00:50:00.524Z,36.9
2022-12-05T00:51:01.595Z,36.9
2022-12-05T00:52:00.193Z,36.9
2022-12-05T00:53:00.245Z,36.9
2022-12-05T00:54:02.200Z,35.4
2022-12-05T00:55:00.375Z,35.4
2022-12-05T00:56:02.825Z,35.4
2022-12-05T00:57:00.212Z,35.4
2022-12-05T00:58:00.187Z,35.4
2022-12-05T00:59:01.381Z,37.2
2022-12-05T01:00:00.325Z,37.2
2022-12-05T01:01:14.165Z,37.2
2022-12-05T01:02:00.222Z,37.2
2022-12-05T01:03:00.282Z,37.2
2022-12-05T01:04:02.763Z,36.3
2022-12-05T01:05:00.377Z,36.3
2022-12-05T01:06:00.469Z,36.3
2022-12-05T01:07:00.222Z,36.3
2022-12-05T01:08:00.267Z,36.3
2022-12-05T01:09:00.592Z,30.2
2022-12-05T01:10:00.282Z,30.2
2022-12-05T01:11:01.354Z,30.2
2022-12-05T01:12:00.471Z,30.2
2022-12-05T01:13:00.184Z,30.2
2022-12-05T01:14:00.248Z,36.2
2022-12-05T01:15:00.363Z,36.2
2022-12-05T01:16:00.467Z,36.2
2022-12-05T01:17:00.290Z,36.2
2022-12-05T01:18:00.202Z,37.9
2022-12-05T01:19:03.484Z,37.9
2022-12-05T01:20:00.363Z,37.9
2022-12-05T01:21:04.518Z,37.9
2022-12-05T01:22:00.447Z,37.9
2022-12-05T01:23:00.214Z,35.0
2022-12-05T01:24:00.225Z,35.0
2022-12-05T01:25:00.238Z,35.0
2022-12-05T01:26:05.350Z,35.0
2022-12-05T01:27:00.299Z,35.0
2022-12-05T01:28:00.205Z,36.5
2022-12-05T01:29:00.603Z,36.5
2022-12-05T01:30:00.411Z,36.5
2022-12-05T01:31:04.783Z,36.5
2022-12-05T01:32:00.375Z,36.5
2022-12-05T01:33:00.219Z,36.5
2022-12-05T01:34:02.511Z,36.5
2022-12-05T01:35:00.215Z,36.5
2022-12-05T01:36:02.012Z,36.5
2022-12-05T01:37:00.195Z,36.5
2022-12-05T01:38:00.523Z,36.8
2022-12-05T01:39:00.240Z,36.8
2022-12-05T01:40:00.226Z,36.8
2022-12-05T01:41:02.777Z,36.8
2022-12-05T01:42:00.383Z,36.8
2022-12-05T01:43:00.302Z,37.0
2022-12-05T01:44:03.572Z,37.0
2022-12-05T01:45:05.679Z,37.0
2022-12-05T01:46:00.266Z,37.0
2022-12-05T01:47:00.216Z,37.0
2022-12-05T01:48:04.416Z,36.0
2022-12-05T01:49:05.975Z,36.0
2022-12-05T01:50:00.842Z,36.0
2022-12-05T01:51:01.759Z,36.0
2022-12-05T01:52:04.970Z,36.0
2022-12-05T01:53:01.881Z,37.8
2022-12-05T01:54:01.415Z,37.8
2022-12-05T01:55:05.960Z,37.8
2022-12-05T01:56:00.402Z,37.8
2022-12-05T01:57:04.400Z,37.8
2022-12-05T01:58:02.286Z,36.5
2022-12-05T01:59:02.926Z,36.5
2022-12-05T02:00:11.020Z,36.5
2022-12-05T02:01:00.719Z,36.5
2022-12-05T02:02:00.605Z,36.5
2022-12-05T02:03:05.575Z,35.1
2022-12-05T02:04:01.119Z,35.1
2022-12-05T02:05:03.671Z,35.1
2022-12-05T02:06:00.824Z,35.1
2022-12-05T02:07:00.194Z,35.1
2022-12-05T02:08:03.730Z,34.6
2022-12-05T02:09:00.557Z,34.6
2022-12-05T02:10:00.514Z,34.6
2022-12-05T02:11:00.342Z,34.6
2022-12-05T02:12:02.380Z,34.6
2022-12-05T02:13:11.313Z,33.1
2022-12-05T02:14:08.525Z,33.1
2022-12-05T02:15:20.123Z,33.1
2022-12-05T02:16:07.743Z,33.1
2022-12-05T02:17:09.282Z,33.1
2022-12-05T02:18:17.644Z,32.3
2022-12-05T02:19:18.723Z,32.3
2022-12-05T02:20:10.162Z,32.3
2022-12-05T02:21:10.810Z,32.3
2022-12-05T02:22:19.269Z,32.3
2022-12-05T02:23:07.711Z,32.6
2022-12-05T02:24:20.120Z,32.6
2022-12-05T02:25:10.150Z,32.6
2022-12-05T02:26:20.148Z,32.6
2022-12-05T02:27:20.143Z,32.6
2022-12-05T02:28:03.449Z,34.0
2022-12-05T02:29:17.625Z,34.0
2022-12-05T02:30:14.441Z,34.0
2022-12-05T02:31:09.393Z,34.0
2022-12-05T02:32:13.424Z,34.0
2022-12-05T02:33:16.872Z,32.9
2022-12-05T02:34:18.725Z,32.9
2022-12-05T02:35:14.916Z,32.9
2022-12-05T02:36:07.048Z,32.9
2022-12-05T02:37:11.066Z,32.9
2022-12-05T02:38:13.793Z,33.3
2022-12-05T02:39:13.805Z,33.3
2022-12-05T02:40:08.324Z,33.3
2022-12-05T02:41:16.617Z,33.3
2022-12-05T02:42:07.878Z,33.3
2022-12-05T02:43:05.936Z,31.8
2022-12-05T02:44:08.246Z,31.8
2022-12-05T02:45:03.828Z,31.8
2022-12-05T02:46:07.527Z,31.8
2022-12-05T02:47:01.928Z,31.8
2022-12-05T02:48:01.167Z,31.9
2022-12-05T02:49:04.691Z,31.9
2022-12-05T02:50:00.668Z,31.9
2022-12-05T02:51:02.796Z,31.9
2022-12-05T02:52:02.563Z,31.9
2022-12-05T02:53:06.268Z,29.5
2022-12-05T02:54:05.901Z,29.5
2022-12-05T02:55:02.566Z,29.5
2022-12-05T02:56:01.235Z,29.5
2022-12-05T02:57:00.775Z,29.5
2022-12-05T02:58:03.695Z,30.5
2022-12-05T02:59:00.481Z,30.5
2022-12-05T03:00:00.489Z,30.5
2022-12-05T03:01:01.765Z,30.5
2022-12-05T03:02:00.387Z,30.5
2022-12-05T03:03:00.396Z,31.5
2022-12-05T03:04:02.913Z,31.5
2022-12-05T03:05:10.977Z,31.5
2022-12-05T03:06:06.986Z,31.5
2022-12-05T03:07:03.425Z,31.5
2022-12-05T03:08:03.339Z,32.4
2022-12-05T03:09:05.251Z,32.4
2022-12-05T03:10:03.434Z,32.4
2022-12-05T03:11:02.193Z,32.4
2022-12-05T03:12:09.417Z,32.4
2022-12-05T03:13:07.982Z,31.3
2022-12-05T03:14:02.918Z,31.3
2022-12-05T03:15:07.268Z,31.3
2022-12-05T03:16:05.615Z,31.3
2022-12-05T03:17:06.424Z,31.3
2022-12-05T03:18:09.951Z,29.8
2022-12-05T03:19:04.601Z,29.8
2022-12-05T03:20:05.906Z,29.8
2022-12-05T03:21:14.382Z,29.8
2022-12-05T03:22:05.545Z,29.8
2022-12-05T03:23:12.868Z,29.1
2022-12-05T03:24:04.983Z,29.1
2022-12-05T03:25:02.019Z,29.1
2022-12-05T03:26:11.201Z,29.1
2022-12-05T03:27:10.152Z,29.1
2022-12-05T03:28:10.192Z,28.4
2022-12-05T03:29:16.201Z,28.4
2022-12-05T03:30:04.072Z,28.4
2022-12-05T03:31:07.775Z,28.4
2022-12-05T03:32:08.094Z,28.4
2022-12-05T03:33:12.009Z,28.1
2022-12-05T03:34:05.354Z,28.1
2022-12-05T03:35:05.645Z,28.1
2022-12-05T03:36:08.318Z,28.1
2022-12-05T03:37:06.785Z,28.1
2022-12-05T03:38:12.491Z,23.4
2022-12-05T03:39:09.857Z,23.4
2022-12-05T03:40:14.111Z,23.4
2022-12-05T03:41:10.135Z,23.4
2022-12-05T03:42:10.786Z,23.4
2022-12-05T03:43:03.458Z,27.0
2022-12-05T03:44:08.399Z,27.0
2022-12-05T03:45:06.929Z,27.0
2022-12-05T03:46:16.927Z,27.0
2022-12-05T03:47:04.759Z,27.0
2022-12-05T03:48:11.871Z,27.0
2022-12-05T03:49:20.121Z,27.0
2022-12-05T03:50:07.588Z,27.0
2022-12-05T03:51:03.643Z,27.0
2022-12-05T03:52:13.010Z,27.0
2022-12-05T03:53:19.773Z,25.1
2022-12-05T03:54:05.831Z,25.1
2022-12-05T03:55:05.500Z,25.1
2022-12-05T03:56:15.161Z,25.1
2022-12-05T03:57:14.426Z,25.1
2022-12-05T03:58:04.952Z,24.9
2022-12-05T03:59:07.726Z,24.9
2022-12-05T04:00:07.454Z,24.9
2022-12-05T04:01:03.639Z,24.9
2022-12-05T04:02:06.342Z,24.9
2022-12-05T04:03:08.641Z,26.0
2022-12-05T04:04:09.464Z,26.0
2022-12-05T04:05:05.663Z,26.0
2022-12-05T04:06:03.520Z,26.0
2022-12-05T04:07:04.529Z,26.0
2022-12-05T04:08:04.143Z,27.0
2022-12-05T04:09:04.602Z,27.0
2022-12-05T04:10:08.384Z,27.0
2022-12-05T04:11:05.163Z,27.0
2022-12-05T04:12:05.237Z,27.0
2022-12-05T04:13:03.188Z,27.1
2022-12-05T04:14:05.618Z,27.1
2022-12-05T04:15:08.399Z,27.1
2022-12-05T04:16:07.040Z,27.1
2022-12-05T04:17:04.915Z,27.1
2022-12-05T04:18:00.209Z,25.6
2022-12-05T04:19:06.738Z,25.6
2022-12-05T04:20:05.981Z,25.6
2022-12-05T04:21:03.018Z,25.6
2022-12-05T04:22:00.245Z,25.6
2022-12-05T04:23:01.116Z,24.7
2022-12-05T04:24:00.281Z,24.7
2022-12-05T04:25:04.322Z,24.7
2022-12-05T04:26:11.016Z,24.7
2022-12-05T04:27:18.727Z,24.7
2022-12-05T04:28:03.465Z,25.0
2022-12-05T04:29:10.657Z,25.0
2022-12-05T04:30:11.805Z,25.0
2022-12-05T04:31:13.277Z,25.0
2022-12-05T04:32:07.237Z,25.0
2022-12-05T04:33:03.455Z,25.3
2022-12-05T04:34:04.685Z,25.3
2022-12-05T04:35:03.476Z,25.3
2022-12-05T04:36:08.762Z,25.3
2022-12-05T04:37:11.463Z,25.3
2022-12-05T04:38:09.164Z,25.2
2022-12-05T04:39:06.804Z,25.2
2022-12-05T04:40:11.148Z,25.2
2022-12-05T04:41:02.717Z,25.2
2022-12-05T04:42:04.570Z,25.2
2022-12-05T04:43:01.910Z,25.0
2022-12-05T04:44:06.500Z,25.0
2022-12-05T04:45:06.542Z,25.0
2022-12-05T04:46:06.046Z,25.0
2022-12-05T04:47:04.209Z,25.0
2022-12-05T04:48:04.436Z,23.0
2022-12-05T04:49:05.471Z,23.0
2022-12-05T04:50:02.638Z,23.0
2022-12-05T04:51:01.769Z,23.0
2022-12-05T04:52:05.854Z,23.0
2022-12-05T04:53:01.906Z,26.1
2022-12-05T04:54:07.323Z,26.1
2022-12-05T04:55:08.805Z,26.1
2022-12-05T04:56:02.243Z,26.1
2022-12-05T04:57:14.602Z,26.1
2022-12-05T04:58:11.347Z,25.6
2022-12-05T04:59:00.298Z,25.6
2022-12-05T05:00:00.857Z,25.6
2022-12-05T05:01:16.714Z,25.6
2022-12-05T05:02:07.337Z,25.6
2022-12-05T05:03:10.251Z,25.5
2022-12-05T05:04:07.773Z,25.5
2022-12-05T05:05:09.536Z,25.5
2022-12-05T05:06:01.387Z,25.5
2022-12-05T05:07:06.010Z,25.5
2022-12-05T05:08:00.419Z,26.3
2022-12-05T05:09:00.188Z,26.3
2022-12-05T05:10:00.880Z,26.3
2022-12-05T05:11:12.089Z,26.3
2022-12-05T05:12:00.239Z,26.3
2022-12-05T05:13:00.212Z,24.9
2022-12-05T05:14:00.993Z,24.9
2022-12-05T05:15:00.246Z,24.9
2022-12-05T05:16:00.317Z,24.9
2022-12-05T05:17:00.516Z,24.9
2022-12-05T05:18:00.224Z,25.4
2022-12-05T05:19:00.576Z,25.4
2022-12-05T05:20:00.462Z,25.4
2022-12-05T05:21:00.231Z,25.4
2022-12-05T05:22:00.328Z,25.4
2022-12-05T05:23:00.240Z,25.6
2022-12-05T05:24:00.970Z,25.6
2022-12-05T05:25:00.220Z,25.6
2022-12-05T05:26:02.863Z,25.6
2022-12-05T05:27:00.249Z,25.6
2022-12-05T05:28:00.499Z,25.0
2022-12-05T05:29:00.769Z,25.0
2022-12-05T05:30:00.469Z,25.0
2022-12-05T05:31:04.723Z,25.0
2022-12-05T05:32:00.226Z,25.0
2022-12-05T05:33:00.215Z,24.2
2022-12-05T05:34:05.968Z,24.2
2022-12-05T05:35:00.233Z,24.2
2022-12-05T05:36:03.823Z,24.2
2022-12-05T05:37:00.206Z,24.2
2022-12-05T05:38:00.204Z,24.6
2022-12-05T05:39:01.499Z,24.6
2022-12-05T05:40:02.052Z,24.6
2022-12-05T05:41:00.223Z,24.6
2022-12-05T05:42:00.195Z,24.6
2022-12-05T05:43:00.236Z,23.9
2022-12-05T05:44:01.626Z,23.9
2022-12-05T05:45:00.238Z,23.9
2022-12-05T05:46:02.617Z,23.9
2022-12-05T05:47:00.386Z,23.9
2022-12-05T05:48:00.191Z,25.8
2022-12-05T05:49:00.255Z,25.8
2022-12-05T05:50:00.703Z,25.8
2022-12-05T05:51:03.305Z,25.8
2022-12-05T05:52:00.225Z,25.8
2022-12-05T05:53:00.211Z,25.2
2022-12-05T05:54:00.497Z,25.2
2022-12-05T05:55:00.644Z,25.2
2022-12-05T05:56:02.635Z,25.2
2022-12-05T05:57:00.224Z,25.2
2022-12-05T05:58:00.206Z,26.3
2022-12-05T05:59:01.864Z,26.3
2022-12-05T06:00:01.248Z,26.3
2022-12-05T06:01:03.863Z,26.3
2022-12-05T06:02:00.440Z,26.3
2022-12-05T06:03:00.341Z,26.7
2022-12-05T06:04:00.454Z,26.7
2022-12-05T06:05:00.821Z,26.7
2022-12-05T06:06:03.029Z,26.7
2022-12-05T06:07:00.306Z,26.7
2022-12-05T06:08:00.861Z,26.4
2022-12-05T06:09:00.262Z,26.4
2022-12-05T06:10:00.732Z,26.4
2022-12-05T06:11:10.785Z,26.4
2022-12-05T06:12:00.245Z,26.4
2022-12-05T06:13:00.221Z,26.6
2022-12-05T06:14:00.261Z,26.6
2022-12-05T06:15:00.284Z,26.6
2022-12-05T06:16:00.509Z,26.6
2022-12-05T06:17:00.239Z,26.6
2022-12-05T06:18:00.209Z,25.0
2022-12-05T06:19:00.226Z,25.0
2022-12-05T06:20:00.545Z,25.0
2022-12-05T06:21:00.547Z,25.0
2022-12-05T06:22:00.233Z,25.0
2022-12-05T06:23:00.241Z,25.4
2022-12-05T06:24:00.195Z,25.4
2022-12-05T06:25:00.343Z,25.4
2022-12-05T06:26:00.867Z,25.4
2022-12-05T06:27:00.208Z,25.4
2022-12-05T06:28:00.205Z,25.9
2022-12-05T06:29:00.275Z,25.9
2022-12-05T06:30:00.594Z,25.9
2022-12-05T06:31:05.424Z,25.9
2022-12-05T06:32:00.790Z,24.8
2022-12-05T06:33:00.207Z,24.8
2022-12-05T06:34:01.427Z,24.8
2022-12-05T06:35:00.294Z,24.8
2022-12-05T06:36:01.821Z,24.8
2022-12-05T06:37:00.672Z,25.2
2022-12-05T06:38:00.265Z,25.2
2022-12-05T06:39:00.268Z,25.2
2022-12-05T06:40:00.600Z,25.2
2022-12-05T06:41:04.454Z,25.2
2022-12-05T06:42:00.217Z,26.0
2022-12-05T06:43:00.285Z,26.0
2022-12-05T06:44:02.175Z,26.0
2022-12-05T06:45:00.945Z,26.0
2022-12-05T06:46:04.991Z,26.0
2022-12-05T06:47:00.235Z,26.1
2022-12-05T06:48:00.188Z,26.1
2022-12-05T06:49:00.303Z,26.1
2022-12-05T06:50:00.415Z,26.1
2022-12-05T06:51:00.342Z,26.1
2022-12-05T06:52:00.193Z,25.7
2022-12-05T06:53:00.305Z,25.7
2022-12-05T06:54:00.187Z,25.7
2022-12-05T06:55:00.243Z,25.7
2022-12-05T06:56:02.424Z,25.7
2022-12-05T06:57:00.191Z,26.8
2022-12-05T06:58:00.182Z,26.8
2022-12-05T06:59:00.201Z,26.8
2022-12-05T07:00:00.714Z,26.8
2022-12-05T07:01:00.280Z,26.8
2022-12-05T07:02:00.279Z,24.7
2022-12-05T07:03:00.199Z,24.7
2022-12-05T07:04:00.608Z,24.7
2022-12-05T07:05:00.337Z,24.7
2022-12-05T07:06:01.266Z,24.7
2022-12-05T07:07:00.290Z,26.8
2022-12-05T07:08:00.356Z,26.8
2022-12-05T07:09:01.075Z,26.8
2022-12-05T07:10:00.635Z,26.8
2022-12-05T07:11:01.516Z,26.8
2022-12-05T07:12:00.193Z,25.3
2022-12-05T07:13:00.259Z,25.3
2022-12-05T07:14:00.927Z,25.3
2022-12-05T07:15:00.588Z,25.3
2022-12-05T07:16:00.333Z,25.3
2022-12-05T07:17:00.364Z,27.2
2022-12-05T07:18:00.240Z,27.2
2022-12-05T07:19:00.255Z,27.2
2022-12-05T07:20:00.740Z,27.2
2022-12-05T07:21:11.910Z,27.2
2022-12-05T07:22:00.226Z,28.1
2022-12-05T07:23:00.229Z,28.1
2022-12-05T07:24:00.446Z,28.1
2022-12-05T07:25:00.304Z,28.1
2022-12-05T07:26:04.253Z,28.1
2022-12-05T07:27:00.205Z,23.7
2022-12-05T07:28:00.189Z,23.7
2022-12-05T07:29:00.212Z,23.7
2022-12-05T07:30:00.622Z,23.7
2022-12-05T07:31:00.176Z,23.7
2022-12-05T07:32:00.356Z,27.0
2022-12-05T07:33:00.253Z,27.0
2022-12-05T07:34:00.191Z,27.0
2022-12-05T07:35:00.257Z,27.0
2022-12-05T07:36:04.151Z,27.0
2022-12-05T07:37:00.384Z,25.3
2022-12-05T07:38:00.204Z,25.3
2022-12-05T07:39:00.226Z,25.3
2022-12-05T07:40:00.641Z,25.3
2022-12-05T07:41:11.589Z,25.3
2022-12-05T07:42:00.225Z,24.7
2022-12-05T07:43:00.179Z,24.7
2022-12-05T07:44:00.276Z,24.7
2022-12-05T07:45:00.213Z,24.7
2022-12-05T07:46:01.460Z,24.7
2022-12-05T07:47:00.250Z,26.6
2022-12-05T07:48:00.623Z,26.6
2022-12-05T07:49:00.212Z,26.6
2022-12-05T07:50:00.612Z,26.6
2022-12-05T07:51:03.729Z,26.6
2022-12-05T07:52:00.202Z,25.1
2022-12-05T07:53:00.247Z,25.1
2022-12-05T07:54:00.395Z,25.1
2022-12-05T07:55:00.207Z,25.1
2022-12-05T07:56:03.855Z,25.1
2022-12-05T07:57:00.207Z,24.7
2022-12-05T07:58:00.194Z,24.7
2022-12-05T07:59:00.239Z,24.7
2022-12-05T08:00:00.571Z,24.7
2022-12-05T08:01:08.638Z,24.7
2022-12-05T08:02:00.283Z,24.8
2022-12-05T08:03:00.798Z,24.8
2022-12-05T08:04:00.197Z,24.8
2022-12-05T08:05:00.269Z,24.8
2022-12-05T08:06:01.104Z,24.8
2022-12-05T08:07:00.229Z,24.8
2022-12-05T08:08:00.532Z,24.8
2022-12-05T08:09:00.231Z,24.8
2022-12-05T08:10:00.600Z,24.8
2022-12-05T08:11:04.881Z,24.8
2022-12-05T08:12:00.220Z,23.4
2022-12-05T08:13:00.555Z,23.4
2022-12-05T08:14:01.705Z,23.4
2022-12-05T08:15:00.198Z,23.4
2022-12-05T08:16:03.420Z,23.4
2022-12-05T08:17:00.333Z,24.2
2022-12-05T08:18:00.224Z,24.2
2022-12-05T08:19:02.989Z,24.2
2022-12-05T08:20:00.529Z,24.2
2022-12-05T08:21:01.937Z,24.2
2022-12-05T08:22:00.220Z,23.8
2022-12-05T08:23:00.234Z,23.8
2022-12-05T08:24:03.568Z,23.8
2022-12-05T08:25:00.194Z,23.8
2022-12-05T08:26:02.822Z,23.8
2022-12-05T08:27:00.261Z,24.7
2022-12-05T08:28:00.222Z,24.7
2022-12-05T08:29:03.308Z,24.7
2022-12-05T08:30:00.718Z,24.7
2022-12-05T08:31:05.873Z,24.7
2022-12-05T08:32:00.235Z,24.9
2022-12-05T08:33:00.277Z,24.9
2022-12-05T08:34:00.761Z,24.9
2022-12-05T08:35:00.271Z,24.9
2022-12-05T08:36:03.768Z,24.9
2022-12-05T08:37:00.213Z,24.1
2022-12-05T08:38:00.296Z,24.1
2022-12-05T08:39:04.180Z,24.1
2022-12-05T08:40:00.458Z,24.1
2022-12-05T08:41:02.542Z,24.1
2022-12-05T08:42:00.199Z,24.8
2022-12-05T08:43:00.222Z,24.8
2022-12-05T08:44:03.399Z,24.8
2022-12-05T08:45:00.653Z,24.8
2022-12-05T08:46:01.100Z,24.8
2022-12-05T08:47:00.258Z,25.9
2022-12-05T08:48:00.203Z,25.9
2022-12-05T08:49:00.312Z,25.9
2022-12-05T08:50:00.514Z,25.9
2022-12-05T08:51:04.942Z,25.9
2022-12-05T08:52:00.226Z,25.9
2022-12-05T08:53:00.235Z,25.9
2022-12-05T08:54:02.483Z,25.9
2022-12-05T08:55:00.664Z,25.9
2022-12-05T08:56:01.398Z,25.9
2022-12-05T08:57:00.211Z,26.3
2022-12-05T08:58:00.250Z,26.3
2022-12-05T08:59:05.412Z,26.3
2022-12-05T09:00:00.211Z,26.3
2022-12-05T09:01:11.442Z,26.3
2022-12-05T09:02:00.193Z,27.5
2022-12-05T09:03:00.255Z,27.5
2022-12-05T09:04:00.441Z,27.5
2022-12-05T09:05:13.665Z,27.5
2022-12-05T09:06:04.483Z,27.5
2022-12-05T09:07:01.658Z,23.8
2022-12-05T09:08:00.299Z,23.8
2022-12-05T09:09:04.341Z,23.8
2022-12-05T09:10:00.207Z,23.8
2022-12-05T09:11:03.974Z,23.8
2022-12-05T09:12:00.234Z,28.0
2022-12-05T09:13:00.210Z,28.0
2022-12-05T09:14:01.059Z,28.0
2022-12-05T09:15:00.581Z,28.0
2022-12-05T09:16:11.565Z,28.0
2022-12-05T09:17:00.241Z,27.6
2022-12-05T09:18:00.324Z,27.6
2022-12-05T09:19:00.349Z,27.6
2022-12-05T09:20:00.264Z,27.6
2022-12-05T09:21:10.014Z,27.6
2022-12-05T09:22:00.369Z,27.1
2022-12-05T09:23:00.224Z,27.1
2022-12-05T09:24:00.259Z,27.1
2022-12-05T09:25:00.397Z,27.1
2022-12-05T09:26:00.265Z,27.1
2022-12-05T09:27:00.188Z,27.8
2022-12-05T09:28:00.260Z,27.8
2022-12-05T09:29:00.961Z,27.8
2022-12-05T09:30:00.231Z,27.8
2022-12-05T09:31:03.064Z,27.8
2022-12-05T09:32:00.243Z,28.7
2022-12-05T09:33:00.191Z,28.7
2022-12-05T09:34:00.259Z,28.7
2022-12-05T09:35:00.574Z,28.7
2022-12-05T09:36:04.403Z,28.7
2022-12-05T09:37:16.620Z,29.0
2022-12-05T09:38:00.245Z,29.0
2022-12-05T09:39:04.955Z,29.0
2022-12-05T09:40:00.214Z,29.0
2022-12-05T09:41:20.108Z,29.0
2022-12-05T09:42:13.396Z,27.3
2022-12-05T09:43:06.274Z,27.3
2022-12-05T09:44:08.225Z,27.3
2022-12-05T09:45:01.450Z,27.3
2022-12-05T09:46:11.730Z,27.3
2022-12-05T09:47:11.311Z,27.6
2022-12-05T09:48:12.789Z,27.6
2022-12-05T09:49:02.337Z,27.6
2022-12-05T09:50:16.027Z,27.6
2022-12-05T09:51:02.115Z,27.6
2022-12-05T09:52:02.638Z,29.3
2022-12-05T09:53:03.720Z,29.3
2022-12-05T09:54:01.636Z,29.3
2022-12-05T09:55:09.635Z,29.3
2022-12-05T09:56:05.067Z,29.3
2022-12-05T09:57:00.428Z,28.0
2022-12-05T09:58:02.700Z,28.0
2022-12-05T09:59:00.303Z,28.0
2022-12-05T10:00:05.099Z,28.0
2022-12-05T10:01:10.876Z,28.0
2022-12-05T10:02:20.110Z,28.9
2022-12-05T10:03:11.559Z,28.9
2022-12-05T10:04:20.233Z,28.9
2022-12-05T10:05:08.791Z,28.9
2022-12-05T10:06:11.023Z,28.9
2022-12-05T10:07:13.422Z,25.4
2022-12-05T10:08:15.991Z,25.4
2022-12-05T10:09:12.181Z,25.4
2022-12-05T10:10:20.689Z,25.4
2022-12-05T10:11:03.999Z,25.4
2022-12-05T10:12:03.484Z,28.2
2022-12-05T10:13:12.870Z,28.2
2022-12-05T10:14:09.698Z,28.2
2022-12-05T10:15:10.150Z,28.2
2022-12-05T10:16:09.551Z,28.2
2022-12-05T10:17:15.543Z,28.7
2022-12-05T10:18:14.928Z,28.7
2022-12-05T10:19:05.736Z,28.7
2022-12-05T10:20:09.699Z,28.7
2022-12-05T10:21:10.471Z,28.7
2022-12-05T10:22:13.751Z,29.3
2022-12-05T10:23:07.418Z,29.3
2022-12-05T10:24:04.789Z,29.3
2022-12-05T10:25:03.436Z,29.3
2022-12-05T10:26:03.420Z,29.3
2022-12-05T10:27:04.787Z,30.1
2022-12-05T10:28:05.917Z,30.1
2022-12-05T10:29:04.497Z,30.1
2022-12-05T10:30:11.584Z,30.1
2022-12-05T10:31:06.654Z,30.1
2022-12-05T10:32:11.448Z,30.1
2022-12-05T10:33:10.267Z,30.1
2022-12-05T10:34:05.054Z,30.1
2022-12-05T10:35:15.077Z,30.1
2022-12-05T10:36:08.091Z,30.1
2022-12-05T10:37:10.489Z,31.3
2022-12-05T10:38:12.232Z,31.3
2022-12-05T10:39:00.449Z,31.3
2022-12-05T10:40:00.297Z,31.3
2022-12-05T10:41:04.804Z,31.3
2022-12-05T10:42:00.441Z,30.8
2022-12-05T10:43:00.381Z,30.8
2022-12-05T10:44:00.244Z,30.8
2022-12-05T10:45:04.471Z,30.8
2022-12-05T10:46:01.314Z,30.8
2022-12-05T10:47:00.406Z,31.8
2022-12-05T10:48:00.258Z,31.8
2022-12-05T10:49:00.204Z,31.8
2022-12-05T10:50:12.891Z,31.8
2022-12-05T10:51:00.450Z,31.8
2022-12-05T10:52:00.654Z,31.6
2022-12-05T10:53:02.904Z,31.6
2022-12-05T10:54:00.218Z,31.6
2022-12-05T10:55:04.521Z,31.6
2022-12-05T10:56:29.776Z,31.6
2022-12-05T10:57:00.239Z,30.8
2022-12-05T10:58:16.834Z,30.8
2022-12-05T10:59:00.718Z,30.8
2022-12-05T11:00:13.826Z,30.8
2022-12-05T11:01:08.482Z,30.8
2022-12-05T11:02:00.933Z,32.6
2022-12-05T11:03:03.432Z,32.6
2022-12-05T11:04:12.013Z,32.6
2022-12-05T11:05:01.102Z,32.6
2022-12-05T11:06:11.709Z,33.6
2022-12-05T11:07:03.195Z,33.6
2022-12-05T11:08:00.316Z,33.6
2022-12-05T11:09:16.205Z,33.6
2022-12-05T11:10:03.423Z,33.6
2022-12-05T11:11:03.909Z,33.6
2022-12-05T11:12:14.570Z,34.3
2022-12-05T11:13:00.787Z,34.3
2022-12-05T11:14:04.943Z,34.3
2022-12-05T11:15:12.319Z,34.3
2022-12-05T11:16:00.862Z,34.3
2022-12-05T11:17:02.660Z,34.7
2022-12-05T11:18:20.139Z,34.7
2022-12-05T11:19:20.109Z,34.7
2022-12-05T11:20:01.599Z,34.7
2022-12-05T11:21:11.315Z,37.9
2022-12-05T11:22:00.941Z,37.9
2022-12-05T11:23:20.116Z,37.9
2022-12-05T11:24:22.858Z,37.9
2022-12-05T11:25:10.599Z,37.9
2022-12-05T11:26:00.229Z,37.9
2022-12-05T11:27:19.223Z,37.4
2022-12-05T11:28:17.548Z,37.4
2022-12-05T11:29:00.681Z,37.4
2022-12-05T11:30:12.916Z,37.4
2022-12-05T11:31:10.204Z,34.2
2022-12-05T11:32:01.487Z,34.2
2022-12-05T11:33:16.857Z,34.2
2022-12-05T11:34:13.733Z,34.2
2022-12-05T11:35:07.422Z,34.2
2022-12-05T11:36:13.219Z,39.4
2022-12-05T11:37:10.710Z,39.4
2022-12-05T11:38:03.003Z,39.4
2022-12-05T11:39:00.239Z,39.4
2022-12-05T11:40:01.571Z,39.4
2022-12-05T11:41:17.997Z,39.3
2022-12-05T11:42:15.465Z,39.3
2022-12-05T11:43:18.440Z,39.3
2022-12-05T11:44:20.122Z,39.3
2022-12-05T11:45:14.319Z,39.3
2022-12-05T11:46:17.017Z,39.7
2022-12-05T11:47:17.641Z,39.7
2022-12-05T11:48:17.208Z,39.7
2022-12-05T11:49:17.625Z,39.7
2022-12-05T11:50:10.166Z,39.7
2022-12-05T11:51:13.942Z,40.4
2022-12-05T11:52:13.412Z,40.4
2022-12-05T11:53:20.125Z,40.4
2022-12-05T11:54:10.143Z,40.4
2022-12-05T11:55:13.409Z,40.4
2022-12-05T11:56:13.641Z,39.1
2022-12-05T11:57:11.241Z,39.1
2022-12-05T11:58:10.164Z,39.1
2022-12-05T11:59:10.196Z,39.1
2022-12-05T12:00:14.499Z,39.1
2022-12-05T12:01:14.934Z,38.8
2022-12-05T12:02:13.480Z,38.8
2022-12-05T12:03:12.936Z,38.8
2022-12-05T12:04:17.465Z,38.8
2022-12-05T12:05:11.153Z,38.8
2022-12-05T12:06:11.151Z,39.7
2022-12-05T12:07:10.158Z,39.7
2022-12-05T12:08:17.321Z,39.7
2022-12-05T12:09:11.169Z,39.7
2022-12-05T12:10:20.139Z,39.7
2022-12-05T12:11:20.101Z,37.9
2022-12-05T12:12:00.189Z,37.9
2022-12-05T12:13:20.104Z,37.9
2022-12-05T12:14:14.647Z,37.9
2022-12-05T12:15:10.144Z,37.9
2022-12-05T12:16:17.674Z,39.2
2022-12-05T12:17:20.097Z,39.2
2022-12-05T12:18:15.206Z,39.2
2022-12-05T12:19:17.509Z,39.2
2022-12-05T12:20:20.115Z,39.2
2022-12-05T12:21:15.570Z,38.4
2022-12-05T12:22:20.134Z,38.4
2022-12-05T12:23:14.618Z,38.4
2022-12-05T12:24:06.002Z,38.4
2022-12-05T12:25:03.483Z,38.4
2022-12-05T12:26:08.570Z,38.7
2022-12-05T12:27:12.718Z,38.7
2022-12-05T12:28:20.127Z,38.7
2022-12-05T12:29:13.380Z,38.7
2022-12-05T12:30:14.392Z,38.7
2022-12-05T12:31:06.042Z,37.5
2022-12-05T12:32:20.103Z,37.5
2022-12-05T12:33:10.345Z,37.5
2022-12-05T12:34:10.161Z,37.5
2022-12-05T12:35:20.101Z,37.5
2022-12-05T12:36:20.125Z,38.0
2022-12-05T12:37:12.435Z,38.0
2022-12-05T12:38:13.411Z,38.0
2022-12-05T12:39:11.205Z,38.0
2022-12-05T12:40:17.651Z,38.0
2022-12-05T12:41:10.142Z,36.3
2022-12-05T12:42:14.938Z,36.3
2022-12-05T12:43:45.216Z,36.3
2022-12-05T12:44:20.137Z,36.3
2022-12-05T12:45:20.155Z,36.3
2022-12-05T12:46:11.439Z,38.3
2022-12-05T12:47:03.020Z,38.3
2022-12-05T12:48:19.932Z,38.3
2022-12-05T12:49:11.543Z,38.3
2022-12-05T12:50:17.238Z,38.3
2022-12-05T12:51:01.611Z,37.5
2022-12-05T12:52:06.902Z,37.5
2022-12-05T12:53:10.736Z,37.5
2022-12-05T12:54:12.564Z,37.5
2022-12-05T12:55:11.201Z,37.5
2022-12-05T12:56:15.020Z,38.1
2022-12-05T12:57:16.097Z,38.1
2022-12-05T12:58:10.089Z,38.1
2022-12-05T12:59:16.966Z,38.1
2022-12-05T13:00:20.137Z,38.1
2022-12-05T13:01:15.595Z,37.2
2022-12-05T13:02:10.183Z,37.2
2022-12-05T13:03:11.410Z,37.2
2022-12-05T13:04:05.007Z,37.2
2022-12-05T13:05:07.111Z,37.2
2022-12-05T13:06:05.700Z,36.2
2022-12-05T13:07:10.566Z,36.2
2022-12-05T13:08:18.909Z,36.2
2022-12-05T13:09:06.396Z,36.2
2022-12-05T13:10:12.526Z,36.2
2022-12-05T13:11:04.648Z,37.1
2022-12-05T13:12:06.699Z,37.1
2022-12-05T13:13:02.689Z,37.1
2022-12-05T13:14:02.290Z,37.1
2022-12-05T13:15:05.396Z,37.1
2022-12-05T13:16:02.841Z,36.8
2022-12-05T13:17:00.903Z,36.8
2022-12-05T13:18:04.031Z,36.8